Hundon, Virginia
Current Conditions -  °F | °C
As of 1:52 PM on Sunday 23 Nov 2014 (Local Time) from KIAD Reporting Station
Broken Clouds Broken Clouds  
Wind Chill: 50°   Ceiling: 14000
Heat Index: 50°   Visibility: 10mi
Dew Point: 27°   Wind: 6mph
Humidity: 41%   Direction: 150°SSE
Pressure: 30.12"   Gusts: NA
Location:  38.9599°N, 77.3372°W
Report Text: KIAD 231852Z 15005KT 10SM FEW045 BKN140 BKN250 10/M03 A3012 RMK AO2 SLP199 T01001028
Loading
Personal Weather Stations






























Interactive Weather Map New forecast layout! Learn more

10-Day Weather Forecast

Advertisements
Track Severe Weather on mobile